sensor_id;sensor_type;location;lat;lon;timestamp;pressure;altitude;pressure_sealevel;temperature;humidity
5679;BME280;2862;52.560;13.566;2023-10-13T00:04:11;100565.38;;;14.20;100.00
5679;BME280;2862;52.560;13.566;2023-10-13T00:14:14;100561.00;;;14.19;100.00
5679;BME280;2862;52.560;13.566;2023-10-13T00:24:20;100553.72;;;14.11;100.00
5679;BME280;2862;52.560;13.566;2023-10-13T00:34:25;100556.66;;;14.18;100.00
5679;BME280;2862;52.560;13.566;2023-10-13T00:44:31;100537.91;;;14.08;100.00
5679;BME280;2862;52.560;13.566;2023-10-13T00:54:40;100533.44;;;13.99;100.00
5679;BME280;2862;52.560;13.566;2023-10-13T01:04:44;100527.84;;;13.92;100.00
5679;BME280;2862;52.560;13.566;2023-10-13T01:14:48;100523.91;;;13.87;100.00
5679;BME280;2862;52.560;13.566;2023-10-13T01:24:52;100524.47;;;13.90;100.00
5679;BME280;2862;52.560;13.566;2023-10-13T01:35:07;100531.75;;;13.80;100.00
5679;BME280;2862;52.560;13.566;2023-10-13T01:45:11;100527.56;;;13.77;100.00
5679;BME280;2862;52.560;13.566;2023-10-13T01:55:16;100522.06;;;13.69;100.00
5679;BME280;2862;52.560;13.566;2023-10-13T02:05:23;100524.31;;;13.74;100.00
5679;BME280;2862;52.560;13.566;2023-10-13T02:15:34;100521.47;;;13.58;100.00
5679;BME280;2862;52.560;13.566;2023-10-13T02:25:40;100506.09;;;13.50;100.00
5679;BME280;2862;52.560;13.566;2023-10-13T02:35:48;100480.03;;;13.42;100.00
5679;BME280;2862;52.560;13.566;2023-10-13T02:45:57;100461.22;;;13.60;100.00
5679;BME280;2862;52.560;13.566;2023-10-13T02:56:02;100463.59;;;13.63;100.00
5679;BME280;2862;52.560;13.566;2023-10-13T03:06:09;100459.53;;;13.59;100.00
5679;BME280;2862;52.560;13.566;2023-10-13T03:16:14;100447.47;;;13.63;100.00
5679;BME280;2862;52.560;13.566;2023-10-13T03:26:19;100427.19;;;13.69;100.00
5679;BME280;2862;52.560;13.566;2023-10-13T03:36:23;100413.38;;;13.64;100.00
5679;BME280;2862;52.560;13.566;2023-10-13T03:46:59;100384.41;;;13.75;100.00
5679;BME280;2862;52.560;13.566;2023-10-13T03:57:19;100387.34;;;13.82;100.00
5679;BME280;2862;52.560;13.566;2023-10-13T04:07:24;100378.78;;;13.87;100.00
5679;BME280;2862;52.560;13.566;2023-10-13T04:18:03;100366.25;;;13.95;100.00
5679;BME280;2862;52.560;13.566;2023-10-13T04:28:17;100365.84;;;14.08;100.00
5679;BME280;2862;52.560;13.566;2023-10-13T04:38:36;100358.50;;;14.18;100.00
5679;BME280;2862;52.560;13.566;2023-10-13T04:48:58;100336.00;;;14.27;100.00
5679;BME280;2862;52.560;13.566;2023-10-13T04:59:11;100325.75;;;14.23;100.00
5679;BME280;2862;52.560;13.566;2023-10-13T05:09:38;100317.06;;;14.37;100.00
5679;BME280;2862;52.560;13.566;2023-10-13T05:19:59;100331.03;;;14.41;100.00
5679;BME280;2862;52.560;13.566;2023-10-13T05:30:21;100317.25;;;14.44;100.00
5679;BME280;2862;52.560;13.566;2023-10-13T05:40:51;100311.59;;;14.47;100.00
5679;BME280;2862;52.560;13.566;2023-10-13T05:51:13;100316.97;;;14.47;100.00
5679;BME280;2862;52.560;13.566;2023-10-13T06:01:45;100294.31;;;14.57;100.00
5679;BME280;2862;52.560;13.566;2023-10-13T06:12:07;100302.44;;;14.74;100.00
5679;BME280;2862;52.560;13.566;2023-10-13T06:22:27;100288.81;;;15.40;100.00
5679;BME280;2862;52.560;13.566;2023-10-13T06:32:49;100286.78;;;15.51;100.00
5679;BME280;2862;52.560;13.566;2023-10-13T06:42:53;100287.38;;;16.02;100.00
5679;BME280;2862;52.560;13.566;2023-10-13T06:52:58;100276.97;;;16.69;100.00
5679;BME280;2862;52.560;13.566;2023-10-13T07:03:04;100276.44;;;16.96;100.00
5679;BME280;2862;52.560;13.566;2023-10-13T07:13:20;100275.09;;;18.05;100.00
5679;BME280;2862;52.560;13.566;2023-10-13T07:23:23;100263.34;;;17.98;100.00
5679;BME280;2862;52.560;13.566;2023-10-13T07:33:28;100255.03;;;18.00;100.00
5679;BME280;2862;52.560;13.566;2023-10-13T07:43:33;100251.88;;;17.29;100.00
5679;BME280;2862;52.560;13.566;2023-10-13T07:53:37;100239.41;;;17.43;100.00
5679;BME280;2862;52.560;13.566;2023-10-13T08:03:41;100245.81;;;17.27;100.00
5679;BME280;2862;52.560;13.566;2023-10-13T08:13:47;100231.13;;;17.07;100.00
5679;BME280;2862;52.560;13.566;2023-10-13T08:24:07;100226.59;;;17.22;100.00
5679;BME280;2862;52.560;13.566;2023-10-13T08:34:14;100212.84;;;17.46;100.00
5679;BME280;2862;52.560;13.566;2023-10-13T08:44:27;100194.41;;;17.50;100.00
5679;BME280;2862;52.560;13.566;2023-10-13T08:54:41;100194.31;;;17.58;100.00
5679;BME280;2862;52.560;13.566;2023-10-13T09:04:48;100175.09;;;17.68;100.00
5679;BME280;2862;52.560;13.566;2023-10-13T09:15:04;100168.13;;;17.73;100.00
5679;BME280;2862;52.560;13.566;2023-10-13T09:25:22;100156.44;;;17.88;100.00
5679;BME280;2862;52.560;13.566;2023-10-13T09:35:26;100149.84;;;17.75;100.00
5679;BME280;2862;52.560;13.566;2023-10-13T09:45:31;100124.09;;;17.65;100.00
5679;BME280;2862;52.560;13.566;2023-10-13T09:55:42;100111.78;;;17.92;100.00
5679;BME280;2862;52.560;13.566;2023-10-13T10:05:55;100089.59;;;17.82;100.00
5679;BME280;2862;52.560;13.566;2023-10-13T10:16:11;100073.78;;;17.78;100.00
5679;BME280;2862;52.560;13.566;2023-10-13T10:26:16;100065.66;;;17.64;100.00
5679;BME280;2862;52.560;13.566;2023-10-13T10:36:29;100055.59;;;17.72;100.00
5679;BME280;2862;52.560;13.566;2023-10-13T10:46:32;100060.31;;;17.85;100.00
5679;BME280;2862;52.560;13.566;2023-10-13T10:56:46;100044.59;;;17.59;100.00
5679;BME280;2862;52.560;13.566;2023-10-13T11:06:55;100026.41;;;17.68;100.00
5679;BME280;2862;52.560;13.566;2023-10-13T11:17:00;99999.84;;;17.93;100.00
5679;BME280;2862;52.560;13.566;2023-10-13T11:27:13;100005.50;;;18.19;100.00
5679;BME280;2862;52.560;13.566;2023-10-13T11:37:24;99984.25;;;18.16;100.00
5679;BME280;2862;52.560;13.566;2023-10-13T11:47:40;99957.38;;;18.15;100.00
5679;BME280;2862;52.560;13.566;2023-10-13T11:57:53;99942.44;;;18.19;100.00
5679;BME280;2862;52.560;13.566;2023-10-13T12:07:59;99937.31;;;18.30;100.00
5679;BME280;2862;52.560;13.566;2023-10-13T12:18:10;99917.22;;;18.46;100.00
5679;BME280;2862;52.560;13.566;2023-10-13T12:28:16;99894.00;;;18.65;100.00
5679;BME280;2862;52.560;13.566;2023-10-13T12:38:24;99887.88;;;18.84;100.00
5679;BME280;2862;52.560;13.566;2023-10-13T12:48:38;99870.59;;;18.92;100.00
5679;BME280;2862;52.560;13.566;2023-10-13T12:59:07;99854.22;;;19.20;100.00
5679;BME280;2862;52.560;13.566;2023-10-13T13:09:11;99829.03;;;19.40;100.00
5679;BME280;2862;52.560;13.566;2023-10-13T13:19:15;99805.25;;;19.55;100.00
5679;BME280;2862;52.560;13.566;2023-10-13T13:29:27;99804.25;;;19.76;100.00
5679;BME280;2862;52.560;13.566;2023-10-13T13:39:32;99782.94;;;19.93;100.00
5679;BME280;2862;52.560;13.566;2023-10-13T13:49:35;99773.53;;;20.02;100.00
5679;BME280;2862;52.560;13.566;2023-10-13T13:59:43;99771.56;;;20.22;100.00
5679;BME280;2862;52.560;13.566;2023-10-13T14:09:46;99766.50;;;20.39;100.00
5679;BME280;2862;52.560;13.566;2023-10-13T14:19:55;99744.94;;;20.57;97.01
5679;BME280;2862;52.560;13.566;2023-10-13T14:29:58;99727.31;;;20.73;93.98
5679;BME280;2862;52.560;13.566;2023-10-13T14:40:03;99713.63;;;20.86;93.37
5679;BME280;2862;52.560;13.566;2023-10-13T14:50:06;99690.28;;;20.79;92.10
5679;BME280;2862;52.560;13.566;2023-10-13T15:00:13;99670.31;;;20.66;92.67
5679;BME280;2862;52.560;13.566;2023-10-13T15:10:17;99685.81;;;20.53;93.56
5679;BME280;2862;52.560;13.566;2023-10-13T15:20:21;99680.44;;;20.39;93.61
5679;BME280;2862;52.560;13.566;2023-10-13T15:30:25;99670.69;;;20.32;93.79
5679;BME280;2862;52.560;13.566;2023-10-13T15:40:40;99664.47;;;20.25;93.63
5679;BME280;2862;52.560;13.566;2023-10-13T15:50:44;99639.66;;;20.14;93.68
5679;BME280;2862;52.560;13.566;2023-10-13T16:00:48;99639.06;;;20.06;92.25
5679;BME280;2862;52.560;13.566;2023-10-13T16:10:52;99628.84;;;20.01;91.57
5679;BME280;2862;52.560;13.566;2023-10-13T16:20:56;99608.88;;;19.89;92.07
5679;BME280;2862;52.560;13.566;2023-10-13T16:30:59;99602.59;;;19.95;89.86
5679;BME280;2862;52.560;13.566;2023-10-13T16:41:03;99597.81;;;19.91;88.49
5679;BME280;2862;52.560;13.566;2023-10-13T16:51:08;99595.94;;;19.91;87.61
5679;BME280;2862;52.560;13.566;2023-10-13T17:01:31;99591.22;;;19.73;88.84
5679;BME280;2862;52.560;13.566;2023-10-13T17:11:53;99594.81;;;19.67;87.84
5679;BME280;2862;52.560;13.566;2023-10-13T17:21:57;99593.25;;;19.84;85.72
5679;BME280;2862;52.560;13.566;2023-10-13T17:32:20;99585.25;;;20.03;82.92
5679;BME280;2862;52.560;13.566;2023-10-13T17:53:55;99584.09;;;20.17;81.45
5679;BME280;2862;52.560;13.566;2023-10-13T18:04:56;99579.94;;;20.14;81.02
5679;BME280;2862;52.560;13.566;2023-10-13T18:27:16;99574.00;;;20.31;78.23
5679;BME280;2862;52.560;13.566;2023-10-13T18:38:33;99557.72;;;20.31;77.19
5679;BME280;2862;52.560;13.566;2023-10-13T18:49:22;99551.22;;;20.32;76.23
5679;BME280;2862;52.560;13.566;2023-10-13T18:59:57;99549.94;;;20.34;75.06
5679;BME280;2862;52.560;13.566;2023-10-13T19:11:13;99548.00;;;20.48;72.50
5679;BME280;2862;52.560;13.566;2023-10-13T19:21:18;99528.72;;;20.56;71.14
5679;BME280;2862;52.560;13.566;2023-10-13T19:31:23;99525.16;;;20.56;70.47
5679;BME280;2862;52.560;13.566;2023-10-13T19:41:26;99514.53;;;20.54;70.35
5679;BME280;2862;52.560;13.566;2023-10-13T19:51:31;99521.16;;;20.58;69.64
5679;BME280;2862;52.560;13.566;2023-10-13T20:01:34;99512.25;;;20.51;69.83
5679;BME280;2862;52.560;13.566;2023-10-13T20:11:38;99495.78;;;20.46;69.40
5679;BME280;2862;52.560;13.566;2023-10-13T20:21:42;99503.72;;;20.48;68.70
5679;BME280;2862;52.560;13.566;2023-10-13T20:31:47;99495.22;;;20.37;69.03
5679;BME280;2862;52.560;13.566;2023-10-13T20:41:51;99485.84;;;20.33;69.25
5679;BME280;2862;52.560;13.566;2023-10-13T20:51:55;99459.97;;;20.31;68.74
5679;BME280;2862;52.560;13.566;2023-10-13T21:01:58;99451.38;;;20.34;68.63
5679;BME280;2862;52.560;13.566;2023-10-13T21:12:07;99438.69;;;20.28;69.20
5679;BME280;2862;52.560;13.566;2023-10-13T21:22:12;99427.66;;;20.23;68.71
5679;BME280;2862;52.560;13.566;2023-10-13T21:32:22;99416.59;;;20.24;68.13
5679;BME280;2862;52.560;13.566;2023-10-13T21:42:27;99399.53;;;20.17;68.47
5679;BME280;2862;52.560;13.566;2023-10-13T21:52:34;99377.63;;;20.19;68.31
5679;BME280;2862;52.560;13.566;2023-10-13T22:02:37;99366.75;;;20.19;68.16
5679;BME280;2862;52.560;13.566;2023-10-13T22:12:42;99340.66;;;20.17;67.72
5679;BME280;2862;52.560;13.566;2023-10-13T22:22:45;99319.25;;;20.09;68.45
5679;BME280;2862;52.560;13.566;2023-10-13T22:32:51;99294.75;;;20.16;67.17
5679;BME280;2862;52.560;13.566;2023-10-13T22:42:54;99269.41;;;20.04;66.84
5679;BME280;2862;52.560;13.566;2023-10-13T22:52:59;99267.22;;;19.94;67.65
5679;BME280;2862;52.560;13.566;2023-10-13T23:03:02;99248.44;;;19.93;69.36
5679;BME280;2862;52.560;13.566;2023-10-13T23:13:13;99250.69;;;19.77;69.94
5679;BME280;2862;52.560;13.566;2023-10-13T23:23:20;99287.75;;;19.83;69.32
5679;BME280;2862;52.560;13.566;2023-10-13T23:33:27;99283.78;;;19.86;68.90
5679;BME280;2862;52.560;13.566;2023-10-13T23:43:30;99238.75;;;19.78;68.71
5679;BME280;2862;52.560;13.566;2023-10-13T23:53:46;99235.94;;;19.73;70.81
